Terminal Aerodrome Forecast
Issued by NWS

Home | Current Version | Previous Version | Text Only | Print | Product List | Glossary On
Versions: 1 2 3 4 5 6 7 8 9 10 11 12 13 14 15 16 17 18 19 20 21 22
000
FTUS44 KOUN 251726
TAFPNC
TAF
KPNC 251726Z 2518/2618 17013G20KT P6SM BKN035
     FM252200 17012G20KT 5SM -TSRA BR SCT015 OVC040CB
      TEMPO 2522/2601 VRB45KT 1SM +TSRA SCT008 OVC015CB
     FM260200 15007KT P6SM FEW015 BKN150
     FM260900 VRB05KT 3SM BR BKN015
     FM261500 19007KT P6SM BKN030=

USA.gov is the U.S. government's official web portal to all federal, state and local government web resources and services.